Météo Nord-Pas-de-Calais   La météo au plus près de chez vous

Station météorologique

Observations météo à Chartres (28070)

28070001 155 m Dernier relevé à 06:36
10.3°C
Humidité 93 % Vent 2.9 km/h 1022.2 hPa

Journée consultée

Mercredi 2 Septembre 2026

Synthèse de la journée

Périodes de référence en UTC

Température maximale

24.7°C

à 17:36

06h 06h

Température minimale

10.3°C

à 06:36

18h 18h

Rafale maximale

6 km/h

à 02:18

00h 00h

Précipitations

0 mm

Cumul quotidien

06h 06h

Ensoleillement

0h 0 mins

Durée quotidienne

00h 00h

Graphiques de la journée

Heure locale Réduire

Données détaillées

Relevés météo

Pas de 6 minutes Afficher les relevés infra-horaires
Relevés météo détaillés à Chartres pour le Mercredi 2 Septembre 2026
Heure Température °C Point de rosée °C Humidité % Vent moyen (raf.), km/h Précipitations mm Température à 10 cm °C Température à 20 cm °C Température à 50 cm °C Température à 100 cm °C Visibilité m État du sol   Hauteur neige cm Ensoleillement min Rayonnement global W/m² Pression hPa
06:36 10.3 °C 8.6 °C 89 % 3 km/h (3 km/h) 0 mm0 mm 20.2 °C 20.6 °C 20.4 °C 20 °C 20000 m 0   0 cm 0 min 0 W/m² 1022.3 hPa
06:30 10.4 °C 8.7 °C 89 % 3 km/h (3 km/h) 0 mm0 mm 20.2 °C 20.6 °C 20.4 °C 20 °C 20000 m 0   0 cm 0 min 0 W/m² 1022.3 hPa
06:24 10.5 °C 8.9 °C 90 % 3 km/h (4 km/h) 0 mm0 mm 20.2 °C 20.6 °C 20.4 °C 20 °C 20000 m 0   0 cm 0 min 0 W/m² 1022.3 hPa
06:18 10.7 °C 9.1 °C 90 % 3 km/h (4 km/h) 0 mm0 mm 20.3 °C 20.6 °C 20.4 °C 20 °C 20000 m 0   0 cm 0 min 0 W/m² 1022.3 hPa
06:12 10.8 °C 9.4 °C 91 % 3 km/h (4 km/h) 0 mm0 mm 20.3 °C 20.6 °C 20.4 °C 20 °C 20000 m 0   0 cm 0 min 0 W/m² 1022.3 hPa
06:06 10.8 °C 9.2 °C 90 % 3 km/h (4 km/h) 0 mm0 mm 20.3 °C 20.6 °C 20.4 °C 20 °C 20000 m 0   0 cm 0 min 0 W/m² 1022.3 hPa
06:00 11 °C 9.6 °C 91 % 3 km/h (4 km/h) 0 mm0 mm 20.3 °C 20.7 °C 20.5 °C 20 °C 20000 m 0   0 cm 0 min 0 W/m² 1022.2 hPa
05:54 11.1 °C 9.5 °C 90 % 3 km/h (4 km/h) 0 mm0 mm 20.3 °C 20.6 °C 20.4 °C 20 °C 20000 m 0   0 cm 0 min 0 W/m² 1022.2 hPa
05:48 11.3 °C 9.7 °C 90 % 3 km/h (4 km/h) 0 mm0 mm 20.4 °C 20.7 °C 20.4 °C 20 °C 20000 m 0   0 cm 0 min 0 W/m² 1022.2 hPa
05:42 11.5 °C 10.2 °C 92 % 3 km/h (4 km/h) 0 mm0 mm 20.4 °C 20.7 °C 20.4 °C 20 °C 20000 m 0   0 cm 0 min 0 W/m² 1022.2 hPa
05:36 11.5 °C 10.4 °C 93 % 3 km/h (4 km/h) 0 mm0 mm 20.4 °C 20.7 °C 20.4 °C 20 °C 20000 m 0   0 cm 0 min 0 W/m² 1022.2 hPa
05:30 11.1 °C 9.8 °C 92 % 3 km/h (4 km/h) 0 mm0 mm 20.4 °C 20.7 °C 20.4 °C 20 °C 20000 m 0   0 cm 0 min 0 W/m² 1022.2 hPa
05:24 11 °C 9.3 °C 89 % 4 km/h (4 km/h) 0 mm0 mm 20.4 °C 20.7 °C 20.4 °C 20 °C 20000 m 0   0 cm 0 min 0 W/m² 1022.2 hPa
05:18 11.1 °C 9.4 °C 89 % 3 km/h (4 km/h) 0 mm0 mm 20.5 °C 20.7 °C 20.4 °C 20 °C 20000 m 0   0 cm 0 min 0 W/m² 1022.2 hPa
05:12 11.3 °C 9.7 °C 90 % 2 km/h (3 km/h) 0 mm0 mm 20.5 °C 20.7 °C 20.4 °C 20 °C 20000 m 0   0 cm 0 min 0 W/m² 1022.3 hPa
05:06 11.3 °C 9.6 °C 89 % 0 km/h (3 km/h) 0 mm0 mm 20.5 °C 20.7 °C 20.4 °C 20 °C 20000 m 0   0 cm 0 min 0 W/m² 1022.3 hPa
05:00 11.3 °C 9.4 °C 88 % 2 km/h (3 km/h) 0 mm0 mm 20.5 °C 20.7 °C 20.4 °C 20 °C 20000 m 0   0 cm 0 min 0 W/m² 1022.4 hPa
04:54 11.3 °C 9.2 °C 87 % 2 km/h (4 km/h) 0 mm0 mm 20.5 °C 20.7 °C 20.4 °C 20 °C 20000 m 0   0 cm 0 min 0 W/m² 1022.3 hPa
04:48 11.7 °C 9.9 °C 89 % 3 km/h (6 km/h) 0 mm0 mm 20.5 °C 20.7 °C 20.4 °C 20 °C 20000 m 0   0 cm 0 min 0 W/m² 1022.3 hPa
04:42 11.6 °C 9.7 °C 88 % 3 km/h (6 km/h) 0 mm0 mm 20.5 °C 20.7 °C 20.4 °C 20 °C 20000 m 0   0 cm 0 min 0 W/m² 1022.4 hPa
04:36 11.7 °C 9.4 °C 86 % 2 km/h (4 km/h) 0 mm0 mm 20.6 °C 20.7 °C 20.4 °C 20 °C 20000 m 0   0 cm 0 min 0 W/m² 1022.3 hPa
04:30 12 °C 9.9 °C 87 % 3 km/h (5 km/h) 0 mm0 mm 20.6 °C 20.8 °C 20.4 °C 20 °C 20000 m 0   0 cm 0 min 0 W/m² 1022.3 hPa
04:24 12.3 °C 10.5 °C 89 % 3 km/h (5 km/h) 0 mm0 mm 20.6 °C 20.8 °C 20.4 °C 20 °C 20000 m 0   0 cm 0 min 0 W/m² 1022.3 hPa
04:18 12.3 °C 10.5 °C 89 % 3 km/h (4 km/h) 0 mm0 mm 20.6 °C 20.8 °C 20.4 °C 20 °C 20000 m 0   0 cm 0 min 0 W/m² 1022.2 hPa
04:12 12.3 °C 10.2 °C 87 % 3 km/h (4 km/h) 0 mm0 mm 20.6 °C 20.8 °C 20.4 °C 20 °C 20000 m 0   0 cm 0 min 0 W/m² 1022.2 hPa
04:06 12.6 °C 10.7 °C 88 % 4 km/h (5 km/h) 0 mm0 mm 20.6 °C 20.8 °C 20.4 °C 20 °C 20000 m 0   0 cm 0 min 0 W/m² 1022 hPa
04:00 12.6 °C 10.8 °C 89 % 3 km/h (5 km/h) 0 mm0 mm 20.7 °C 20.8 °C 20.4 °C 20 °C 20000 m 0   0 cm 0 min 0 W/m² 1022.2 hPa
03:54 12.5 °C 10.6 °C 88 % 3 km/h (3 km/h) 0 mm0 mm 20.7 °C 20.8 °C 20.4 °C 20 °C 20000 m 0   0 cm 0 min 0 W/m² 1022.1 hPa
03:48 12.6 °C 10.5 °C 87 % 3 km/h (4 km/h) 0 mm0 mm 20.7 °C 20.8 °C 20.4 °C 20 °C 20000 m 0   0 cm 0 min 0 W/m² 1022.1 hPa
03:42 12.7 °C 10.6 °C 87 % 2 km/h (3 km/h) 0 mm0 mm 20.7 °C 20.9 °C 20.5 °C 20 °C 20000 m 0   0 cm 0 min 0 W/m² 1022.2 hPa
03:36 12.8 °C 10.7 °C 87 % 3 km/h (4 km/h) 0 mm0 mm 20.7 °C 20.8 °C 20.4 °C 20 °C 20000 m 0   0 cm 0 min 0 W/m² 1022.1 hPa
03:30 12.9 °C 11 °C 88 % 3 km/h (6 km/h) 0 mm0 mm 20.7 °C 20.8 °C 20.4 °C 20 °C 20000 m 0   0 cm 0 min 0 W/m² 1022.2 hPa
03:24 12.9 °C 11 °C 88 % 4 km/h (6 km/h) 0 mm0 mm 20.7 °C 20.9 °C 20.4 °C 20 °C 20000 m 0   0 cm 0 min 0 W/m² 1022.4 hPa
03:18 12.8 °C 10.9 °C 88 % 4 km/h (5 km/h) 0 mm0 mm 20.8 °C 20.9 °C 20.4 °C 20 °C 20000 m 0   0 cm 0 min 0 W/m² 1022.3 hPa
03:12 12.7 °C 10.8 °C 88 % 4 km/h (6 km/h) 0 mm0 mm 20.8 °C 20.9 °C 20.4 °C 20 °C 20000 m 0   0 cm 0 min 0 W/m² 1022.3 hPa
03:06 12.3 °C 10 °C 86 % 4 km/h (5 km/h) 0 mm0 mm 20.8 °C 20.9 °C 20.4 °C 20 °C 20000 m 0   0 cm 0 min 0 W/m² 1022.5 hPa
03:00 12.3 °C 9.8 °C 85 % 3 km/h (4 km/h) 0 mm0 mm 20.8 °C 20.9 °C 20.4 °C 20 °C 20000 m 0   0 cm 0 min 0 W/m² 1022.4 hPa
02:54 12.5 °C 9.9 °C 84 % 3 km/h (4 km/h) 0 mm0 mm 20.8 °C 20.9 °C 20.4 °C 20 °C 20000 m 0   0 cm 0 min 0 W/m² 1022.3 hPa
02:48 12.6 °C 9.6 °C 82 % 3 km/h (4 km/h) 0 mm0 mm 20.8 °C 20.9 °C 20.4 °C 20 °C 20000 m 0   0 cm 0 min 0 W/m² 1022.3 hPa
02:42 12.8 °C 9.6 °C 81 % 2 km/h (3 km/h) 0 mm0 mm 20.9 °C 20.9 °C 20.4 °C 20 °C 20000 m 0   0 cm 0 min 0 W/m² 1022.4 hPa
02:36 13.1 °C 9.9 °C 81 % 3 km/h (5 km/h) 0 mm0 mm 20.9 °C 20.9 °C 20.4 °C 20 °C 20000 m 0   0 cm 0 min 0 W/m² 1022.4 hPa
02:30 13.4 °C 10.2 °C 81 % 3 km/h (5 km/h) 0 mm0 mm 20.9 °C 20.9 °C 20.4 °C 20 °C 20000 m 0   0 cm 0 min 0 W/m² 1022.5 hPa
02:24 13.6 °C 10.4 °C 81 % 3 km/h (6 km/h) 0 mm0 mm 20.9 °C 20.9 °C 20.4 °C 20 °C 20000 m 0   0 cm 0 min 0 W/m² 1022.5 hPa
02:18 13.8 °C 10.6 °C 81 % 4 km/h (6 km/h) 0 mm0 mm 20.9 °C 21 °C 20.4 °C 20 °C 20000 m 0   0 cm 0 min 0 W/m² 1022.6 hPa
02:12 13.8 °C 10.6 °C 81 % 3 km/h (5 km/h) 0 mm0 mm 21 °C 20.9 °C 20.4 °C 20 °C 20000 m 0   0 cm 0 min 0 W/m² 1022.5 hPa
02:06 13.9 °C 10.5 °C 80 % 3 km/h (6 km/h) 0 mm0 mm 21 °C 21 °C 20.4 °C 20 °C 20000 m 0   0 cm 0 min 0 W/m² 1022.5 hPa
02:00 14.2 °C 10.8 °C 80 % 4 km/h (7 km/h) 0 mm0 mm 21 °C 21 °C 20.4 °C 20 °C 20000 m 0   0 cm 0 min 0 W/m² 1022.5 hPa
01:54 14.3 °C 10.9 °C 80 % 5 km/h (7 km/h) 0 mm0 mm 21 °C 21 °C 20.4 °C 20 °C 20000 m 0   0 cm 0 min 0 W/m² 1022.5 hPa
01:48 14.3 °C 10.9 °C 80 % 4 km/h (7 km/h) 0 mm0 mm 21 °C 21 °C 20.4 °C 20 °C 20000 m 0   0 cm 0 min 0 W/m² 1022.5 hPa
01:42 14.3 °C 10.7 °C 79 % 3 km/h (5 km/h) 0 mm0 mm 21 °C 21 °C 20.4 °C 20 °C 20000 m 0   0 cm 0 min 0 W/m² 1022.3 hPa
01:36 14.4 °C 10.8 °C 79 % 4 km/h (7 km/h) 0 mm0 mm 21.1 °C 21 °C 20.4 °C 20 °C 20000 m 0   0 cm 0 min 0 W/m² 1022.3 hPa
01:30 14.5 °C 10.7 °C 78 % 5 km/h (9 km/h) 0 mm0 mm 21.1 °C 21 °C 20.4 °C 20 °C 20000 m 0   0 cm 0 min 0 W/m² 1022.4 hPa
01:24 14.6 °C 10.8 °C 78 % 6 km/h (9 km/h) 0 mm0 mm 21.1 °C 21 °C 20.4 °C 20 °C 20000 m 0   0 cm 0 min 0 W/m² 1022.4 hPa
01:18 14.7 °C 10.7 °C 77 % 4 km/h (9 km/h) 0 mm0 mm 21.1 °C 21 °C 20.4 °C 20 °C 20000 m 0   0 cm 0 min 0 W/m² 1022.4 hPa
01:12 14.7 °C 10.5 °C 76 % 3 km/h (6 km/h) 0 mm0 mm 21.2 °C 21 °C 20.4 °C 20 °C 20000 m 0   0 cm 0 min 0 W/m² 1022.2 hPa
01:06 14.8 °C 10.6 °C 76 % 4 km/h (8 km/h) 0 mm0 mm 21.2 °C 21 °C 20.4 °C 20 °C 20000 m 0   0 cm 0 min 0 W/m² 1022.3 hPa
01:00 14.8 °C 10.6 °C 76 % 5 km/h (8 km/h) 0 mm0 mm 21.2 °C 21 °C 20.4 °C 20 °C 20000 m 0   0 cm 0 min 0 W/m² 1022.6 hPa
00:54 14.8 °C 10.4 °C 75 % 4 km/h (7 km/h) 0 mm0 mm 21.2 °C 21 °C 20.4 °C 20 °C 20000 m 0   0 cm 0 min 0 W/m² 1022.5 hPa
00:48 14.9 °C 10.5 °C 75 % 5 km/h (7 km/h) 0 mm0 mm 21.2 °C 21 °C 20.4 °C 20 °C 20000 m 0   0 cm 0 min 0 W/m² 1022.4 hPa
00:42 15 °C 10.4 °C 74 % 5 km/h (9 km/h) 0 mm0 mm 21.2 °C 21 °C 20.4 °C 20 °C 20000 m 0   0 cm 0 min 0 W/m² 1022.4 hPa
00:36 15.1 °C 10.5 °C 74 % 6 km/h (9 km/h) 0 mm0 mm 21.2 °C 21 °C 20.4 °C 20 °C 20000 m 0   0 cm 0 min 0 W/m² 1022.4 hPa
00:30 15.1 °C 10.3 °C 73 % 5 km/h (8 km/h) 0 mm0 mm 21.3 °C 21.1 °C 20.4 °C 20 °C 20000 m 0   0 cm 0 min 0 W/m² 1022.3 hPa
00:24 15.2 °C 10.2 °C 72 % 4 km/h (7 km/h) 0 mm0 mm 21.3 °C 21.1 °C 20.4 °C 20 °C 20000 m 0   0 cm 0 min 0 W/m² 1022.2 hPa
00:18 15.3 °C 10.3 °C 72 % 5 km/h (8 km/h) 0 mm0 mm 21.3 °C 21 °C 20.4 °C 20 °C 20000 m 0   0 cm 0 min 0 W/m² 1022.2 hPa
00:12 15.4 °C 10.2 °C 71 % 5 km/h (8 km/h) 0 mm0 mm 21.3 °C 21 °C 20.4 °C 20 °C 20000 m 0   0 cm 0 min 0 W/m² 1022.4 hPa
00:06 15.5 °C 10 °C 70 % 5 km/h (8 km/h) 0 mm0 mm 21.3 °C 21.1 °C 20.4 °C 20 °C 20000 m 0   0 cm 0 min 0 W/m² 1022.4 hPa
00:00 15.5 °C 10 °C 70 % 6 km/h (11 km/h) 0 mm0 mm 21.4 °C 21.1 °C 20.4 °C 20 °C 20000 m 0   0 cm 0 min 0 W/m² 1022.3 hPa

Données via Météo-France

Relevés météo à Chartres

Cette page rassemble les observations de la station de Chartres : température, humidité, vent, précipitations et pression atmosphérique. Les graphiques facilitent le suivi de la journée, tandis que le tableau donne accès aux mesures horaires et infra-horaires disponibles.

Pour replacer ces mesures dans leur contexte, consultez la climatologie de Chartres ainsi que ses normales et records. Retrouvez aussi la carte des observations météo en temps réel.